Time,TemperatureF,DewpointF,PressureIn,WindDirection,WindDirectionDegrees,WindSpeedMPH,WindSpeedGustMPH,Humidity,HourlyPrecipIn,Conditions,Clouds,dailyrainin,SoftwareType,DateUTC
2013-03-20 00:00:00,40.4,13.6,29.74,NW,306,2.2,5.8,33,0.00,,,0.00,VWS V14.01,2013-03-20 04:00:00,
2013-03-20 00:01:00,40.4,13.6,29.74,West,259,3.1,3.1,33,0.00,,,0.00,VWS V14.01,2013-03-20 04:01:00,
2013-03-20 00:04:00,40.2,13.4,29.74,WNW,297,7.6,7.6,33,0.00,,,0.00,VWS V14.01,2013-03-20 04:04:00,
2013-03-20 00:09:00,39.8,13.1,29.74,WNW,296,4.0,6.3,33,0.00,,,0.00,VWS V14.01,2013-03-20 04:09:00,
2013-03-20 00:14:00,39.7,12.9,29.74,West,272,3.6,6.3,33,0.00,,,0.00,VWS V14.01,2013-03-20 04:14:00,
2013-03-20 00:19:00,39.5,12.8,29.74,NW,309,11.0,11.0,33,0.00,,,0.00,VWS V14.01,2013-03-20 04:19:00,
2013-03-20 00:24:00,39.3,12.6,29.74,NNW,342,11.0,11.0,33,0.00,,,0.00,VWS V14.01,2013-03-20 04:24:00,
2013-03-20 00:29:00,39.3,12.6,29.74,WNW,284,4.5,8.1,33,0.00,,,0.00,VWS V14.01,2013-03-20 04:29:00,
2013-03-20 00:35:00,39.1,12.5,29.74,NW,326,8.3,13.6,33,0.00,,,0.00,VWS V14.01,2013-03-20 04:35:00,
2013-03-20 00:40:00,39.1,12.5,29.74,WNW,303,5.4,8.7,33,0.00,,,0.00,VWS V14.01,2013-03-20 04:40:00,
2013-03-20 00:45:00,38.9,12.3,29.74,WNW,291,5.4,5.8,33,0.00,,,0.00,VWS V14.01,2013-03-20 04:45:00,
2013-03-20 00:50:00,38.6,12.0,29.74,NW,321,2.7,6.3,33,0.00,,,0.00,VWS V14.01,2013-03-20 04:50:00,
2013-03-20 00:55:00,38.4,11.8,29.77,WNW,302,4.0,6.3,33,0.00,,,0.00,VWS V14.01,2013-03-20 04:55:00,
2013-03-20 01:00:00,38.2,12.3,29.77,NW,323,4.0,5.8,34,0.00,,,0.00,VWS V14.01,2013-03-20 05:00:00,
2013-03-20 01:05:00,37.9,12.0,29.77,NW,314,0.0,2.2,34,0.00,,,0.00,VWS V14.01,2013-03-20 05:05:00,
2013-03-20 01:10:00,37.7,11.9,29.77,West,267,0.0,0.0,34,0.00,,,0.00,VWS V14.01,2013-03-20 05:10:00,
2013-03-20 01:15:00,37.3,11.5,29.77,NNW,327,4.0,6.3,34,0.00,,,0.00,VWS V14.01,2013-03-20 05:15:00,
2013-03-20 01:20:00,37.1,11.4,29.77,WSW,242,3.6,5.4,34,0.00,,,0.00,VWS V14.01,2013-03-20 05:20:00,
2013-03-20 01:25:00,37.1,11.4,29.77,NW,304,3.6,8.3,34,0.00,,,0.00,VWS V14.01,2013-03-20 05:25:00,
2013-03-20 01:30:00,37.1,11.4,29.77,North,353,6.3,6.3,34,0.00,,,0.00,VWS V14.01,2013-03-20 05:30:00,
2013-03-20 01:36:00,37.0,11.2,29.77,West,271,4.9,4.9,34,0.00,,,0.00,VWS V14.01,2013-03-20 05:36:00,
2013-03-20 01:41:00,37.0,11.2,29.77,SW,222,3.6,11.9,34,0.00,,,0.00,VWS V14.01,2013-03-20 05:41:00,
2013-03-20 01:46:00,37.1,11.4,29.77,WNW,300,3.1,5.4,34,0.00,,,0.00,VWS V14.01,2013-03-20 05:46:00,
2013-03-20 01:51:00,36.8,11.1,29.77,NW,323,5.8,7.6,34,0.00,,,0.00,VWS V14.01,2013-03-20 05:51:00,
2013-03-20 01:56:00,36.8,11.1,29.77,North,0,8.7,8.7,34,0.00,,,0.00,VWS V14.01,2013-03-20 05:56:00,
2013-03-20 02:01:00,36.8,11.1,29.77,WNW,294,5.8,5.8,34,0.00,,,0.00,VWS V14.01,2013-03-20 06:01:00,
2013-03-20 02:06:00,36.6,10.9,29.80,NW,310,7.6,7.6,34,0.00,,,0.00,VWS V14.01,2013-03-20 06:06:00,
2013-03-20 02:11:00,36.6,10.9,29.80,NW,314,5.4,5.8,34,0.00,,,0.00,VWS V14.01,2013-03-20 06:11:00,
2013-03-20 02:16:00,36.4,11.4,29.80,WNW,302,5.4,5.4,35,0.00,,,0.00,VWS V14.01,2013-03-20 06:16:00,
2013-03-20 02:21:00,36.2,11.2,29.80,NW,322,3.1,5.4,35,0.00,,,0.00,VWS V14.01,2013-03-20 06:21:00,
2013-03-20 02:27:00,36.1,11.1,29.80,WNW,282,3.6,5.4,35,0.00,,,0.00,VWS V14.01,2013-03-20 06:27:00,
2013-03-20 02:32:00,36.1,11.1,29.80,NW,324,2.2,3.6,35,0.00,,,0.00,VWS V14.01,2013-03-20 06:32:00,
2013-03-20 02:37:00,35.9,10.9,29.80,WNW,295,2.2,5.4,35,0.00,,,0.00,VWS V14.01,2013-03-20 06:37:00,
2013-03-20 02:42:00,35.9,11.5,29.80,WNW,297,4.0,4.0,36,0.00,,,0.00,VWS V14.01,2013-03-20 06:42:00,
2013-03-20 02:47:00,35.7,11.4,29.80,WNW,286,0.0,3.1,36,0.00,,,0.00,VWS V14.01,2013-03-20 06:47:00,
2013-03-20 02:52:00,35.5,11.2,29.80,NNW,331,3.1,5.8,36,0.00,,,0.00,VWS V14.01,2013-03-20 06:52:00,
2013-03-20 02:57:00,35.5,11.2,29.80,WNW,297,3.6,5.8,36,0.00,,,0.00,VWS V14.01,2013-03-20 06:57:00,
2013-03-20 03:02:00,35.3,11.7,29.80,NNW,341,3.1,3.1,37,0.00,,,0.00,VWS V14.01,2013-03-20 07:02:00,
2013-03-20 03:07:00,35.5,11.8,29.80,ENE,70,2.7,3.6,37,0.00,,,0.00,VWS V14.01,2013-03-20 07:07:00,
2013-03-20 03:12:00,35.5,11.8,29.80,NW,311,6.3,6.3,37,0.00,,,0.00,VWS V14.01,2013-03-20 07:12:00,
2013-03-20 03:17:00,35.5,11.8,29.80,NW,306,3.6,4.5,37,0.00,,,0.00,VWS V14.01,2013-03-20 07:17:00,
2013-03-20 03:22:00,35.5,11.8,29.80,WSW,244,5.8,5.8,37,0.00,,,0.00,VWS V14.01,2013-03-20 07:22:00,
2013-03-20 03:27:00,35.3,11.7,29.80,West,266,0.0,2.7,37,0.00,,,0.00,VWS V14.01,2013-03-20 07:27:00,
2013-03-20 03:32:00,35.2,11.5,29.80,NE,38,3.1,3.1,37,0.00,,,0.00,VWS V14.01,2013-03-20 07:32:00,
2013-03-20 03:38:00,35.0,12.0,29.80,West,269,0.0,0.0,38,0.00,,,0.00,VWS V14.01,2013-03-20 07:38:00,
2013-03-20 03:43:00,34.8,11.8,29.80,WSW,237,0.0,4.0,38,0.00,,,0.00,VWS V14.01,2013-03-20 07:43:00,
2013-03-20 03:48:00,34.6,12.2,29.80,West,277,0.0,3.6,39,0.00,,,0.00,VWS V14.01,2013-03-20 07:48:00,
2013-03-20 03:53:00,34.4,12.6,29.80,NW,314,2.7,8.3,40,0.00,,,0.00,VWS V14.01,2013-03-20 07:53:00,
2013-03-20 03:58:00,34.4,12.6,29.80,NW,326,0.0,0.0,40,0.00,,,0.00,VWS V14.01,2013-03-20 07:58:00,
2013-03-20 04:03:00,34.3,12.5,29.80,NW,308,0.0,0.0,40,0.00,,,0.00,VWS V14.01,2013-03-20 08:03:00,
2013-03-20 04:08:00,34.1,12.9,29.80,West,268,2.2,4.9,41,0.00,,,0.00,VWS V14.01,2013-03-20 08:08:00,
2013-03-20 04:13:00,34.1,12.9,29.80,West,273,0.0,2.2,41,0.00,,,0.00,VWS V14.01,2013-03-20 08:13:00,
2013-03-20 04:18:00,34.1,13.4,29.80,West,281,0.0,2.2,42,0.00,,,0.00,VWS V14.01,2013-03-20 08:18:00,
2013-03-20 04:24:00,33.9,13.2,29.83,East,84,2.2,2.7,42,0.00,,,0.00,VWS V14.01,2013-03-20 08:24:00,
2013-03-20 04:29:00,33.7,13.1,29.83,West,271,0.0,3.1,42,0.00,,,0.00,VWS V14.01,2013-03-20 08:29:00,
2013-03-20 04:34:00,33.7,13.1,29.83,West,271,0.0,0.0,42,0.00,,,0.00,VWS V14.01,2013-03-20 08:34:00,
2013-03-20 04:39:00,33.5,13.4,29.80,West,271,0.0,0.0,43,0.00,,,0.00,VWS V14.01,2013-03-20 08:39:00,
2013-03-20 04:44:00,33.2,13.6,29.80,WNW,285,0.0,0.0,44,0.00,,,0.00,VWS V14.01,2013-03-20 08:44:00,
2013-03-20 04:49:00,32.6,13.1,29.80,SW,223,0.0,0.0,44,0.00,,,0.00,VWS V14.01,2013-03-20 08:49:00,
2013-03-20 04:54:00,32.5,13.0,29.83,NW,311,2.7,2.7,44,0.00,,,0.00,VWS V14.01,2013-03-20 08:54:00,
2013-03-20 04:59:00,32.6,13.1,29.83,WNW,294,0.0,0.0,44,0.00,,,0.00,VWS V14.01,2013-03-20 08:59:00,
2013-03-20 05:04:00,32.5,13.0,29.83,WSW,239,0.0,0.0,44,0.00,,,0.00,VWS V14.01,2013-03-20 09:04:00,
2013-03-20 05:09:00,32.5,13.0,29.83,WSW,239,0.0,0.0,44,0.00,,,0.00,VWS V14.01,2013-03-20 09:09:00,
2013-03-20 05:14:00,32.3,12.8,29.83,WSW,239,0.0,0.0,44,0.00,,,0.00,VWS V14.01,2013-03-20 09:14:00,
2013-03-20 05:19:00,32.1,12.7,29.83,West,276,0.0,2.2,44,0.00,,,0.00,VWS V14.01,2013-03-20 09:19:00,
2013-03-20 05:25:00,32.3,12.8,29.83,WNW,302,0.0,0.0,44,0.00,,,0.00,VWS V14.01,2013-03-20 09:25:00,
2013-03-20 05:30:00,32.1,12.7,29.83,WNW,302,0.0,0.0,44,0.00,,,0.00,VWS V14.01,2013-03-20 09:30:00,
2013-03-20 05:35:00,32.1,12.7,29.83,WNW,302,0.0,0.0,44,0.00,,,0.00,VWS V14.01,2013-03-20 09:35:00,
2013-03-20 05:40:00,31.7,12.3,29.83,SSW,213,0.0,0.0,44,0.00,,,0.00,VWS V14.01,2013-03-20 09:40:00,
2013-03-20 05:45:00,31.4,12.0,29.83,WNW,291,0.0,0.0,44,0.00,,,0.00,VWS V14.01,2013-03-20 09:45:00,
2013-03-20 05:50:00,31.0,12.2,29.83,WNW,291,0.0,0.0,45,0.00,,,0.00,VWS V14.01,2013-03-20 09:50:00,
2013-03-20 05:55:00,30.7,11.9,29.83,WNW,291,0.0,0.0,45,0.00,,,0.00,VWS V14.01,2013-03-20 09:55:00,
2013-03-20 06:00:00,30.5,11.7,29.83,WNW,291,0.0,0.0,45,0.00,,,0.00,VWS V14.01,2013-03-20 10:00:00,
2013-03-20 06:05:00,30.3,11.5,29.83,WNW,291,0.0,0.0,45,0.00,,,0.00,VWS V14.01,2013-03-20 10:05:00,
2013-03-20 06:10:00,29.9,11.2,29.83,WNW,291,0.0,0.0,45,0.00,,,0.00,VWS V14.01,2013-03-20 10:10:00,
2013-03-20 06:15:00,29.8,11.0,29.83,WNW,291,0.0,0.0,45,0.00,,,0.00,VWS V14.01,2013-03-20 10:15:00,
2013-03-20 06:20:00,29.6,11.4,29.83,WNW,291,0.0,0.0,46,0.00,,,0.00,VWS V14.01,2013-03-20 10:20:00,
2013-03-20 06:26:00,29.4,11.2,29.83,WNW,291,0.0,0.0,46,0.00,,,0.00,VWS V14.01,2013-03-20 10:26:00,
2013-03-20 06:31:00,29.4,11.2,29.83,WNW,291,0.0,0.0,46,0.00,,,0.00,VWS V14.01,2013-03-20 10:31:00,
2013-03-20 06:36:00,29.2,11.0,29.83,WNW,291,0.0,0.0,46,0.00,,,0.00,VWS V14.01,2013-03-20 10:36:00,
2013-03-20 06:41:00,29.4,11.2,29.83,WNW,291,0.0,0.0,46,0.00,,,0.00,VWS V14.01,2013-03-20 10:41:00,
2013-03-20 06:46:00,29.2,11.0,29.83,WNW,291,0.0,0.0,46,0.00,,,0.00,VWS V14.01,2013-03-20 10:46:00,
2013-03-20 06:51:00,29.0,10.9,29.83,WNW,291,0.0,0.0,46,0.00,,,0.00,VWS V14.01,2013-03-20 10:51:00,
2013-03-20 06:56:00,29.2,11.0,29.83,WNW,291,0.0,0.0,46,0.00,,,0.00,VWS V14.01,2013-03-20 10:56:00,
2013-03-20 07:01:00,29.4,11.2,29.83,WNW,291,0.0,0.0,46,0.00,,,0.00,VWS V14.01,2013-03-20 11:01:00,
2013-03-20 07:06:00,29.8,11.5,29.83,WNW,290,0.0,0.0,46,0.00,,,0.00,VWS V14.01,2013-03-20 11:06:00,
2013-03-20 07:12:00,30.1,11.9,29.83,West,273,2.7,2.7,46,0.00,,,0.00,VWS V14.01,2013-03-20 11:12:00,
2013-03-20 07:17:00,30.5,12.2,29.83,West,273,0.0,0.0,46,0.00,,,0.00,VWS V14.01,2013-03-20 11:17:00,
2013-03-20 07:23:00,31.0,12.2,29.83,WNW,286,0.0,0.0,45,0.00,,,0.00,VWS V14.01,2013-03-20 11:23:00,
2013-03-20 07:28:00,31.2,12.4,29.83,WNW,291,0.0,0.0,45,0.00,,,0.00,VWS V14.01,2013-03-20 11:28:00,
2013-03-20 07:33:00,31.6,12.2,29.83,NW,311,0.0,0.0,44,0.00,,,0.00,VWS V14.01,2013-03-20 11:33:00,
2013-03-20 07:38:00,31.9,12.5,29.83,WNW,294,3.1,3.1,44,0.00,,,0.00,VWS V14.01,2013-03-20 11:38:00,
2013-03-20 07:43:00,32.1,12.7,29.83,West,272,0.0,0.0,44,0.00,,,0.00,VWS V14.01,2013-03-20 11:43:00,
2013-03-20 07:48:00,32.3,12.8,29.83,NW,309,0.0,4.0,44,0.00,,,0.00,VWS V14.01,2013-03-20 11:48:00,
2013-03-20 07:53:00,32.8,12.8,29.83,NW,305,0.0,0.0,43,0.00,,,0.00,VWS V14.01,2013-03-20 11:53:00,
2013-03-20 07:58:00,33.5,12.9,29.83,NW,312,4.0,4.0,42,0.00,,,0.00,VWS V14.01,2013-03-20 11:58:00,
2013-03-20 08:04:00,34.1,12.9,29.83,SW,223,0.0,0.0,41,0.00,,,0.00,VWS V14.01,2013-03-20 12:04:00,
2013-03-20 08:09:00,34.6,13.4,29.83,SW,219,0.0,0.0,41,0.00,,,0.00,VWS V14.01,2013-03-20 12:09:00,
2013-03-20 08:14:00,35.0,13.1,29.83,West,260,0.0,3.1,40,0.00,,,0.00,VWS V14.01,2013-03-20 12:14:00,
2013-03-20 08:19:00,35.2,12.7,29.83,SW,236,0.0,2.2,39,0.00,,,0.00,VWS V14.01,2013-03-20 12:19:00,
2013-03-20 08:24:00,35.5,13.0,29.83,WNW,292,0.0,2.7,39,0.00,,,0.00,VWS V14.01,2013-03-20 12:24:00,
2013-03-20 08:30:00,35.9,12.8,29.83,NW,317,3.6,5.8,38,0.00,,,0.00,VWS V14.01,2013-03-20 12:30:00,
2013-03-20 08:35:00,36.4,13.2,29.83,West,275,4.9,4.9,38,0.00,,,0.00,VWS V14.01,2013-03-20 12:35:00,
2013-03-20 08:40:00,37.1,13.3,29.83,WNW,299,5.8,5.8,37,0.00,,,0.00,VWS V14.01,2013-03-20 12:40:00,
2013-03-20 08:45:00,37.5,13.0,29.83,West,280,3.6,5.8,36,0.00,,,0.00,VWS V14.01,2013-03-20 12:45:00,
2013-03-20 08:50:00,37.9,13.3,29.83,NNW,328,3.6,10.1,36,0.00,,,0.00,VWS V14.01,2013-03-20 12:50:00,
2013-03-20 08:55:00,38.4,13.1,29.80,North,0,0.0,2.7,35,0.00,,,0.00,VWS V14.01,2013-03-20 12:55:00,
2013-03-20 09:00:00,38.8,13.5,29.80,SW,234,0.0,4.0,35,0.00,,,0.00,VWS V14.01,2013-03-20 13:00:00,
2013-03-20 09:05:00,39.1,13.8,29.80,NNW,331,5.8,5.8,35,0.00,,,0.00,VWS V14.01,2013-03-20 13:05:00,
2013-03-20 09:11:00,39.3,13.3,29.83,NW,323,5.8,8.7,34,0.00,,,0.00,VWS V14.01,2013-03-20 13:11:00,
2013-03-20 09:16:00,39.1,13.1,29.83,West,271,2.7,7.6,34,0.00,,,0.00,VWS V14.01,2013-03-20 13:16:00,
2013-03-20 09:21:00,39.1,13.1,29.83,North,353,6.3,6.3,34,0.00,,,0.00,VWS V14.01,2013-03-20 13:21:00,
2013-03-20 09:27:00,39.3,13.3,29.83,WNW,282,0.0,5.8,34,0.00,,,0.00,VWS V14.01,2013-03-20 13:27:00,
2013-03-20 09:32:00,39.7,13.6,29.83,WNW,292,4.0,8.1,34,0.00,,,0.00,VWS V14.01,2013-03-20 13:32:00,
2013-03-20 09:37:00,40.0,13.9,29.83,West,263,2.7,4.9,34,0.00,,,0.00,VWS V14.01,2013-03-20 13:37:00,
2013-03-20 09:42:00,40.7,13.9,29.83,West,266,8.1,8.7,33,0.00,,,0.00,VWS V14.01,2013-03-20 13:42:00,
2013-03-20 09:47:00,40.7,13.9,29.83,West,279,5.4,8.1,33,0.00,,,0.00,VWS V14.01,2013-03-20 13:47:00,
2013-03-20 09:53:00,40.9,14.1,29.80,SW,232,6.3,7.2,33,0.00,,,0.00,VWS V14.01,2013-03-20 13:53:00,
2013-03-20 09:58:00,41.1,14.2,29.80,NW,326,4.9,6.3,33,0.00,,,0.00,VWS V14.01,2013-03-20 13:58:00,
2013-03-20 10:03:00,41.5,14.5,29.80,WSW,246,5.4,8.1,33,0.00,,,0.00,VWS V14.01,2013-03-20 14:03:00,
2013-03-20 10:08:00,41.6,14.7,29.80,West,273,5.8,6.7,33,0.00,,,0.00,VWS V14.01,2013-03-20 14:08:00,
2013-03-20 10:13:00,41.6,14.7,29.80,North,357,3.1,5.8,33,0.00,,,0.00,VWS V14.01,2013-03-20 14:13:00,
2013-03-20 10:18:00,42.0,14.3,29.80,West,267,3.1,8.1,32,0.00,,,0.00,VWS V14.01,2013-03-20 14:18:00,
2013-03-20 10:23:00,42.5,15.5,29.80,West,264,5.4,6.3,33,0.00,,,0.00,VWS V14.01,2013-03-20 14:23:00,
2013-03-20 10:29:00,42.9,15.1,29.80,NNW,332,4.0,8.3,32,0.00,,,0.00,VWS V14.01,2013-03-20 14:29:00,
2013-03-20 10:34:00,42.7,14.9,29.80,WNW,288,10.5,10.5,32,0.00,,,0.00,VWS V14.01,2013-03-20 14:34:00,
2013-03-20 10:39:00,42.9,15.8,29.80,NW,308,3.1,4.0,33,0.00,,,0.00,VWS V14.01,2013-03-20 14:39:00,
2013-03-20 10:44:00,43.3,15.4,29.80,WSW,252,8.3,8.3,32,0.00,,,0.00,VWS V14.01,2013-03-20 14:44:00,
2013-03-20 10:49:00,43.6,15.7,29.80,North,353,3.6,6.3,32,0.00,,,0.00,VWS V14.01,2013-03-20 14:49:00,
2013-03-20 10:54:00,43.6,15.7,29.80,WNW,297,6.3,8.1,32,0.00,,,0.00,VWS V14.01,2013-03-20 14:54:00,
2013-03-20 10:59:00,43.6,15.7,29.80,West,261,4.0,10.5,32,0.00,,,0.00,VWS V14.01,2013-03-20 14:59:00,
2013-03-20 11:04:00,43.4,15.6,29.80,NW,324,4.9,9.6,32,0.00,,,0.00,VWS V14.01,2013-03-20 15:04:00,
2013-03-20 11:10:00,43.8,15.9,29.80,WSW,257,5.4,5.8,32,0.00,,,0.00,VWS V14.01,2013-03-20 15:10:00,
2013-03-20 11:15:00,43.8,15.9,29.80,SSW,209,4.0,6.3,32,0.00,,,0.00,VWS V14.01,2013-03-20 15:15:00,
2013-03-20 11:20:00,44.7,16.7,29.80,NW,305,5.4,6.3,32,0.00,,,0.00,VWS V14.01,2013-03-20 15:20:00,
2013-03-20 11:25:00,45.1,17.0,29.80,NW,308,6.3,7.6,32,0.00,,,0.00,VWS V14.01,2013-03-20 15:25:00,
2013-03-20 11:30:00,45.1,17.0,29.80,WNW,290,8.1,8.1,32,0.00,,,0.00,VWS V14.01,2013-03-20 15:30:00,
2013-03-20 11:35:00,45.1,17.0,29.80,WNW,300,3.6,6.3,32,0.00,,,0.00,VWS V14.01,2013-03-20 15:35:00,
2013-03-20 11:40:00,45.2,17.1,29.80,WNW,282,4.0,10.5,32,0.00,,,0.00,VWS V14.01,2013-03-20 15:40:00,
2013-03-20 11:45:00,45.1,14.7,29.80,WNW,289,4.0,11.0,29,0.00,,,0.00,VWS V14.01,2013-03-20 15:45:00,
2013-03-20 11:50:00,45.4,17.3,29.80,South,191,3.6,4.0,32,0.00,,,0.00,VWS V14.01,2013-03-20 15:50:00,
2013-03-20 11:56:00,46.3,15.8,29.80,West,261,7.6,7.6,29,0.00,,,0.00,VWS V14.01,2013-03-20 15:56:00,
2013-03-20 12:01:00,46.3,15.8,29.80,West,268,5.4,5.4,29,0.00,,,0.00,VWS V14.01,2013-03-20 16:01:00,
2013-03-20 12:07:00,46.1,15.7,29.80,WNW,289,5.4,8.7,29,0.00,,,0.00,VWS V14.01,2013-03-20 16:07:00,
2013-03-20 12:12:00,46.0,15.5,29.80,North,353,5.8,8.1,29,0.00,,,0.00,VWS V14.01,2013-03-20 16:12:00,
2013-03-20 12:17:00,46.1,13.2,29.80,North,353,10.5,13.2,26,0.00,,,0.00,VWS V14.01,2013-03-20 16:17:00,
2013-03-20 12:23:00,45.6,12.7,29.80,NNW,338,5.8,5.8,26,0.00,,,0.00,VWS V14.01,2013-03-20 16:23:00,
2013-03-20 12:28:00,46.1,15.7,29.80,WNW,302,3.1,7.6,29,0.00,,,0.00,VWS V14.01,2013-03-20 16:28:00,
2013-03-20 12:33:00,46.9,13.8,29.80,SW,220,3.6,4.0,26,0.00,,,0.00,VWS V14.01,2013-03-20 16:33:00,
2013-03-20 12:38:00,47.2,14.1,29.77,NNW,342,6.3,6.3,26,0.00,,,0.00,VWS V14.01,2013-03-20 16:38:00,
2013-03-20 12:43:00,47.4,14.2,29.77,NNW,346,9.6,9.6,26,0.00,,,0.00,VWS V14.01,2013-03-20 16:43:00,
2013-03-20 12:49:00,46.3,13.3,29.77,WNW,291,6.3,10.5,26,0.00,,,0.00,VWS V14.01,2013-03-20 16:49:00,
2013-03-20 12:54:00,46.5,13.5,29.77,WNW,303,5.8,6.3,26,0.00,,,0.00,VWS V14.01,2013-03-20 16:54:00,
2013-03-20 12:59:00,47.0,13.9,29.77,WNW,301,5.8,6.3,26,0.00,,,0.00,VWS V14.01,2013-03-20 16:59:00,
2013-03-20 13:04:00,47.8,14.6,29.77,West,280,3.6,3.6,26,0.00,,,0.00,VWS V14.01,2013-03-20 17:04:00,
2013-03-20 13:09:00,48.1,14.9,29.77,NW,305,8.1,8.1,26,0.00,,,0.00,VWS V14.01,2013-03-20 17:09:00,
2013-03-20 13:14:00,48.5,15.2,29.77,WNW,292,5.8,7.6,26,0.00,,,0.00,VWS V14.01,2013-03-20 17:14:00,
2013-03-20 13:19:00,49.2,14.9,29.77,WNW,287,3.6,4.9,25,0.00,,,0.00,VWS V14.01,2013-03-20 17:19:00,
2013-03-20 13:24:00,49.7,15.4,29.77,WSW,251,5.4,8.1,25,0.00,,,0.00,VWS V14.01,2013-03-20 17:24:00,
2013-03-20 13:29:00,49.6,15.2,29.77,SW,235,7.6,8.3,25,0.00,,,0.00,VWS V14.01,2013-03-20 17:29:00,
2013-03-20 13:34:00,49.4,15.1,29.77,West,264,7.2,7.6,25,0.00,,,0.00,VWS V14.01,2013-03-20 17:34:00,
2013-03-20 13:40:00,49.0,15.6,29.77,WNW,301,4.0,6.3,26,0.00,,,0.00,VWS V14.01,2013-03-20 17:40:00,
2013-03-20 13:45:00,48.5,15.2,29.77,WSW,251,7.6,7.6,26,0.00,,,0.00,VWS V14.01,2013-03-20 17:45:00,
2013-03-20 13:50:00,48.8,15.5,29.77,NNW,327,2.2,8.1,26,0.00,,,0.00,VWS V14.01,2013-03-20 17:50:00,
2013-03-20 13:55:00,49.4,15.1,29.74,SW,218,6.3,6.3,25,0.00,,,0.00,VWS V14.01,2013-03-20 17:55:00,
2013-03-20 14:00:00,49.2,13.0,29.74,SW,218,3.1,4.0,23,0.00,,,0.00,VWS V14.01,2013-03-20 18:00:00,
2013-03-20 14:05:00,49.7,15.4,29.74,North,357,6.3,6.3,25,0.00,,,0.00,VWS V14.01,2013-03-20 18:05:00,
2013-03-20 14:10:00,49.9,15.5,29.74,WNW,293,3.6,3.6,25,0.00,,,0.00,VWS V14.01,2013-03-20 18:10:00,
2013-03-20 14:15:00,50.1,13.8,29.74,West,268,2.7,5.8,23,0.00,,,0.00,VWS V14.01,2013-03-20 18:15:00,
2013-03-20 14:20:00,49.9,13.6,29.74,West,279,7.6,8.1,23,0.00,,,0.00,VWS V14.01,2013-03-20 18:20:00,
2013-03-20 14:25:00,49.9,13.6,29.74,West,279,6.3,12.3,23,0.00,,,0.00,VWS V14.01,2013-03-20 18:25:00,
2013-03-20 14:30:00,49.9,13.6,29.74,WSW,252,5.4,5.8,23,0.00,,,0.00,VWS V14.01,2013-03-20 18:30:00,
2013-03-20 14:36:00,50.1,13.8,29.74,WNW,289,3.1,6.3,23,0.00,,,0.00,VWS V14.01,2013-03-20 18:36:00,
2013-03-20 14:41:00,50.5,14.1,29.74,West,278,4.9,4.9,23,0.00,,,0.00,VWS V14.01,2013-03-20 18:41:00,
2013-03-20 14:46:00,50.5,14.1,29.74,NW,310,3.1,4.9,23,0.00,,,0.00,VWS V14.01,2013-03-20 18:46:00,
2013-03-20 14:51:00,50.1,13.8,29.71,West,261,5.8,5.8,23,0.00,,,0.00,VWS V14.01,2013-03-20 18:51:00,
2013-03-20 14:56:00,49.7,13.5,29.71,WSW,254,5.8,6.3,23,0.00,,,0.00,VWS V14.01,2013-03-20 18:56:00,
2013-03-20 15:01:00,49.6,13.3,29.71,West,263,5.4,5.4,23,0.00,,,0.00,VWS V14.01,2013-03-20 19:01:00,
2013-03-20 15:06:00,49.6,13.3,29.71,SW,218,10.1,10.1,23,0.00,,,0.00,VWS V14.01,2013-03-20 19:06:00,
2013-03-20 15:11:00,49.4,13.1,29.71,SSW,206,5.4,8.3,23,0.00,,,0.00,VWS V14.01,2013-03-20 19:11:00,
2013-03-20 15:16:00,49.2,13.0,29.71,NW,306,4.9,6.3,23,0.00,,,0.00,VWS V14.01,2013-03-20 19:16:00,
2013-03-20 15:21:00,49.6,13.3,29.71,SW,221,5.8,6.3,23,0.00,,,0.00,VWS V14.01,2013-03-20 19:21:00,
2013-03-20 15:27:00,49.9,13.6,29.71,NW,311,2.7,8.7,23,0.00,,,0.00,VWS V14.01,2013-03-20 19:27:00,
2013-03-20 15:33:00,50.5,14.1,29.71,WNW,284,2.7,5.8,23,0.00,,,0.00,VWS V14.01,2013-03-20 19:33:00,
2013-03-20 15:38:00,49.9,13.6,29.71,SW,227,5.4,6.7,23,0.00,,,0.00,VWS V14.01,2013-03-20 19:38:00,
2013-03-20 15:43:00,49.6,13.3,29.71,WNW,288,8.1,8.7,23,0.00,,,0.00,VWS V14.01,2013-03-20 19:43:00,
2013-03-20 15:48:00,49.6,13.3,29.71,SSW,198,0.0,7.6,23,0.00,,,0.00,VWS V14.01,2013-03-20 19:48:00,
2013-03-20 15:53:00,49.9,13.6,29.71,SW,224,8.1,9.6,23,0.00,,,0.00,VWS V14.01,2013-03-20 19:53:00,
2013-03-20 15:58:00,49.9,13.6,29.71,SSW,211,6.3,6.3,23,0.00,,,0.00,VWS V14.01,2013-03-20 19:58:00,
2013-03-20 16:03:00,49.6,13.3,29.71,NW,320,11.0,11.0,23,0.00,,,0.00,VWS V14.01,2013-03-20 20:03:00,
2013-03-20 16:09:00,49.0,12.9,29.71,NW,310,5.8,5.8,23,0.00,,,0.00,VWS V14.01,2013-03-20 20:09:00,
2013-03-20 16:14:00,48.7,12.5,29.71,NNW,331,9.6,9.6,23,0.00,,,0.00,VWS V14.01,2013-03-20 20:14:00,
2013-03-20 16:19:00,48.7,12.5,29.71,NW,321,4.0,6.3,23,0.00,,,0.00,VWS V14.01,2013-03-20 20:19:00,
2013-03-20 16:24:00,49.2,13.0,29.71,SW,232,8.7,11.0,23,0.00,,,0.00,VWS V14.01,2013-03-20 20:24:00,
2013-03-20 16:29:00,49.0,12.9,29.71,West,270,4.9,4.9,23,0.00,,,0.00,VWS V14.01,2013-03-20 20:29:00,
2013-03-20 16:34:00,48.8,12.7,29.71,SW,221,4.0,4.0,23,0.00,,,0.00,VWS V14.01,2013-03-20 20:34:00,
2013-03-20 16:39:00,48.7,12.5,29.71,North,353,6.3,6.3,23,0.00,,,0.00,VWS V14.01,2013-03-20 20:39:00,
2013-03-20 16:44:00,48.5,12.4,29.71,SW,225,5.8,5.8,23,0.00,,,0.00,VWS V14.01,2013-03-20 20:44:00,
2013-03-20 16:49:00,48.5,12.4,29.71,West,275,3.6,5.8,23,0.00,,,0.00,VWS V14.01,2013-03-20 20:49:00,
2013-03-20 16:54:00,48.1,12.1,29.71,WSW,256,6.3,6.3,23,0.00,,,0.00,VWS V14.01,2013-03-20 20:54:00,
2013-03-20 17:00:00,48.5,12.4,29.71,West,275,5.4,5.4,23,0.00,,,0.00,VWS V14.01,2013-03-20 21:00:00,
2013-03-20 17:05:00,48.5,12.4,29.71,SW,231,7.6,7.6,23,0.00,,,0.00,VWS V14.01,2013-03-20 21:05:00,
2013-03-20 17:10:00,48.1,12.1,29.71,WNW,294,4.0,7.6,23,0.00,,,0.00,VWS V14.01,2013-03-20 21:10:00,
2013-03-20 17:15:00,47.6,11.6,29.71,NW,322,6.3,6.3,23,0.00,,,0.00,VWS V14.01,2013-03-20 21:15:00,
2013-03-20 17:20:00,47.4,11.5,29.71,West,272,3.1,3.1,23,0.00,,,0.00,VWS V14.01,2013-03-20 21:20:00,
2013-03-20 17:25:00,47.6,11.6,29.71,NNW,335,4.9,4.9,23,0.00,,,0.00,VWS V14.01,2013-03-20 21:25:00,
2013-03-20 17:30:00,47.8,11.8,29.71,WSW,246,11.0,11.0,23,0.00,,,0.00,VWS V14.01,2013-03-20 21:30:00,
2013-03-20 17:35:00,47.8,11.8,29.71,WSW,254,5.8,5.8,23,0.00,,,0.00,VWS V14.01,2013-03-20 21:35:00,
2013-03-20 17:40:00,47.9,11.9,29.71,SW,235,3.1,3.6,23,0.00,,,0.00,VWS V14.01,2013-03-20 21:40:00,
2013-03-20 17:45:00,48.3,12.2,29.71,WNW,295,3.6,3.6,23,0.00,,,0.00,VWS V14.01,2013-03-20 21:45:00,
2013-03-20 17:50:00,48.3,12.2,29.71,West,260,0.0,3.1,23,0.00,,,0.00,VWS V14.01,2013-03-20 21:50:00,
2013-03-20 17:56:00,47.9,11.9,29.71,SW,215,3.6,4.9,23,0.00,,,0.00,VWS V14.01,2013-03-20 21:56:00,
2013-03-20 18:01:00,47.8,11.8,29.71,NNW,339,4.5,5.4,23,0.00,,,0.00,VWS V14.01,2013-03-20 22:01:00,
2013-03-20 18:06:00,47.6,11.6,29.71,NNW,329,2.7,8.1,23,0.00,,,0.00,VWS V14.01,2013-03-20 22:06:00,
2013-03-20 18:11:00,47.6,11.6,29.71,WNW,289,2.2,4.9,23,0.00,,,0.00,VWS V14.01,2013-03-20 22:11:00,
2013-03-20 18:17:00,47.6,11.6,29.71,WSW,242,0.0,2.7,23,0.00,,,0.00,VWS V14.01,2013-03-20 22:17:00,
2013-03-20 18:22:00,47.4,11.5,29.71,West,264,2.7,3.1,23,0.00,,,0.00,VWS V14.01,2013-03-20 22:22:00,
2013-03-20 18:27:00,47.4,11.5,29.71,WNW,302,5.8,5.8,23,0.00,,,0.00,VWS V14.01,2013-03-20 22:27:00,
2013-03-20 18:32:00,47.2,12.3,29.71,East,97,0.0,2.7,24,0.00,,,0.00,VWS V14.01,2013-03-20 22:32:00,
2013-03-20 18:38:00,47.0,12.1,29.71,West,261,0.0,0.0,24,0.00,,,0.00,VWS V14.01,2013-03-20 22:38:00,
2013-03-20 18:43:00,46.9,12.0,29.71,SW,223,2.2,2.2,24,0.00,,,0.00,VWS V14.01,2013-03-20 22:43:00,
2013-03-20 18:48:00,46.7,11.8,29.71,SW,223,0.0,0.0,24,0.00,,,0.00,VWS V14.01,2013-03-20 22:48:00,
2013-03-20 18:53:00,46.5,11.7,29.71,SW,223,0.0,0.0,24,0.00,,,0.00,VWS V14.01,2013-03-20 22:53:00,
2013-03-20 18:58:00,46.1,11.4,29.71,SW,223,0.0,0.0,24,0.00,,,0.00,VWS V14.01,2013-03-20 22:58:00,
2013-03-20 19:03:00,45.8,11.1,29.71,SW,223,0.0,0.0,24,0.00,,,0.00,VWS V14.01,2013-03-20 23:03:00,
2013-03-20 19:08:00,45.4,10.8,29.71,SW,223,0.0,0.0,24,0.00,,,0.00,VWS V14.01,2013-03-20 23:08:00,
2013-03-20 19:13:00,45.1,10.4,29.71,SW,223,0.0,0.0,24,0.00,,,0.00,VWS V14.01,2013-03-20 23:13:00,
2013-03-20 19:18:00,44.7,10.1,29.71,SW,221,0.0,0.0,24,0.00,,,0.00,VWS V14.01,2013-03-20 23:18:00,
2013-03-20 19:24:00,44.5,10.0,29.71,SW,222,0.0,0.0,24,0.00,,,0.00,VWS V14.01,2013-03-20 23:24:00,
2013-03-20 19:29:00,44.3,9.8,29.71,SW,222,0.0,0.0,24,0.00,,,0.00,VWS V14.01,2013-03-20 23:29:00,
2013-03-20 19:34:00,44.2,12.3,29.71,SW,222,0.0,0.0,27,0.00,,,0.00,VWS V14.01,2013-03-20 23:34:00,
2013-03-20 19:39:00,44.0,12.2,29.71,SW,222,0.0,0.0,27,0.00,,,0.00,VWS V14.01,2013-03-20 23:39:00,
2013-03-20 19:44:00,43.8,12.0,29.71,SW,222,0.0,0.0,27,0.00,,,0.00,VWS V14.01,2013-03-20 23:44:00,
2013-03-20 19:49:00,43.6,11.9,29.71,SW,222,0.0,0.0,27,0.00,,,0.00,VWS V14.01,2013-03-20 23:49:00,
2013-03-20 19:54:00,43.3,11.6,29.71,SW,222,0.0,0.0,27,0.00,,,0.00,VWS V14.01,2013-03-20 23:54:00,
2013-03-20 20:00:00,42.9,11.2,29.71,SW,222,0.0,0.0,27,0.00,,,0.00,VWS V14.01,2013-03-21 00:00:00,
2013-03-20 20:05:00,42.5,10.9,29.71,SW,222,0.0,0.0,27,0.00,,,0.00,VWS V14.01,2013-03-21 00:05:00,
2013-03-20 20:10:00,42.2,10.6,29.71,SW,222,0.0,0.0,27,0.00,,,0.00,VWS V14.01,2013-03-21 00:10:00,
2013-03-20 20:15:00,41.8,10.3,29.71,SW,222,0.0,0.0,27,0.00,,,0.00,VWS V14.01,2013-03-21 00:15:00,
2013-03-20 20:20:00,41.5,10.0,29.71,SW,222,0.0,0.0,27,0.00,,,0.00,VWS V14.01,2013-03-21 00:20:00,
2013-03-20 20:25:00,41.3,12.2,29.71,SW,222,0.0,0.0,30,0.00,,,0.00,VWS V14.01,2013-03-21 00:25:00,
2013-03-20 20:30:00,41.1,12.0,29.71,SW,222,0.0,0.0,30,0.00,,,0.00,VWS V14.01,2013-03-21 00:30:00,
2013-03-20 20:35:00,41.3,12.2,29.71,WSW,251,0.0,2.7,30,0.00,,,0.00,VWS V14.01,2013-03-21 00:35:00,
2013-03-20 20:40:00,41.6,12.5,29.71,WSW,251,0.0,0.0,30,0.00,,,0.00,VWS V14.01,2013-03-21 00:40:00,
2013-03-20 20:45:00,41.6,14.0,29.71,SSW,193,0.0,3.1,32,0.00,,,0.00,VWS V14.01,2013-03-21 00:45:00,
2013-03-20 20:50:00,41.6,14.0,29.71,SW,217,0.0,0.0,32,0.00,,,0.00,VWS V14.01,2013-03-21 00:50:00,
2013-03-20 20:55:00,41.8,14.1,29.71,SW,217,0.0,0.0,32,0.00,,,0.00,VWS V14.01,2013-03-21 00:55:00,
2013-03-20 21:00:00,41.8,14.1,29.71,SW,217,0.0,0.0,32,0.00,,,0.00,VWS V14.01,2013-03-21 01:00:00,
2013-03-20 21:05:00,41.8,14.1,29.71,SW,217,0.0,0.0,32,0.00,,,0.00,VWS V14.01,2013-03-21 01:05:00,
2013-03-20 21:11:00,41.8,14.1,29.71,SW,217,0.0,0.0,32,0.00,,,0.00,VWS V14.01,2013-03-21 01:11:00,
2013-03-20 21:17:00,41.6,14.0,29.71,SW,217,0.0,0.0,32,0.00,,,0.00,VWS V14.01,2013-03-21 01:17:00,
2013-03-20 21:22:00,41.5,13.8,29.71,SW,217,0.0,0.0,32,0.00,,,0.00,VWS V14.01,2013-03-21 01:22:00,
2013-03-20 21:27:00,41.3,13.7,29.71,South,174,0.0,0.0,32,0.00,,,0.00,VWS V14.01,2013-03-21 01:27:00,
2013-03-20 21:32:00,40.9,14.1,29.71,South,174,0.0,0.0,33,0.00,,,0.00,VWS V14.01,2013-03-21 01:32:00,
2013-03-20 21:37:00,40.7,13.9,29.71,South,174,0.0,0.0,33,0.00,,,0.00,VWS V14.01,2013-03-21 01:37:00,
2013-03-20 21:42:00,40.4,13.6,29.71,South,174,0.0,0.0,33,0.00,,,0.00,VWS V14.01,2013-03-21 01:42:00,
2013-03-20 21:47:00,40.0,13.2,29.71,South,174,0.0,0.0,33,0.00,,,0.00,VWS V14.01,2013-03-21 01:47:00,
2013-03-20 21:52:00,39.7,12.9,29.71,South,174,0.0,0.0,33,0.00,,,0.00,VWS V14.01,2013-03-21 01:52:00,
2013-03-20 21:58:00,39.5,13.4,29.71,South,174,0.0,0.0,34,0.00,,,0.00,VWS V14.01,2013-03-21 01:58:00,
2013-03-20 22:03:00,39.5,13.4,29.71,South,174,0.0,0.0,34,0.00,,,0.00,VWS V14.01,2013-03-21 02:03:00,
2013-03-20 22:08:00,39.7,13.6,29.71,South,174,0.0,0.0,34,0.00,,,0.00,VWS V14.01,2013-03-21 02:08:00,
2013-03-20 22:13:00,39.8,13.8,29.71,South,174,0.0,0.0,34,0.00,,,0.00,VWS V14.01,2013-03-21 02:13:00,
2013-03-20 22:18:00,40.0,13.9,29.71,South,174,0.0,0.0,34,0.00,,,0.00,VWS V14.01,2013-03-21 02:18:00,
2013-03-20 22:23:00,39.8,13.8,29.71,South,174,0.0,0.0,34,0.00,,,0.00,VWS V14.01,2013-03-21 02:23:00,
2013-03-20 22:29:00,39.8,13.8,29.71,South,174,0.0,0.0,34,0.00,,,0.00,VWS V14.01,2013-03-21 02:29:00,
2013-03-20 22:34:00,39.7,13.6,29.71,South,174,0.0,0.0,34,0.00,,,0.00,VWS V14.01,2013-03-21 02:34:00,
2013-03-20 22:39:00,39.7,14.3,29.71,South,174,0.0,0.0,35,0.00,,,0.00,VWS V14.01,2013-03-21 02:39:00,
2013-03-20 22:44:00,39.8,14.4,29.71,South,174,0.0,0.0,35,0.00,,,0.00,VWS V14.01,2013-03-21 02:44:00,
2013-03-20 22:49:00,39.8,14.4,29.71,SSW,206,0.0,0.0,35,0.00,,,0.00,VWS V14.01,2013-03-21 02:49:00,
2013-03-20 22:54:00,40.6,14.4,29.74,SSE,166,0.0,0.0,34,0.00,,,0.00,VWS V14.01,2013-03-21 02:54:00,
2013-03-20 22:59:00,40.9,14.7,29.74,North,0,0.0,0.0,34,0.00,,,0.00,VWS V14.01,2013-03-21 02:59:00,
2013-03-20 23:04:00,40.9,14.7,29.74,North,0,0.0,0.0,34,0.00,,,0.00,VWS V14.01,2013-03-21 03:04:00,
2013-03-20 23:09:00,41.3,15.1,29.71,North,0,0.0,0.0,34,0.00,,,0.00,VWS V14.01,2013-03-21 03:09:00,
2013-03-20 23:14:00,41.5,15.2,29.71,North,0,0.0,0.0,34,0.00,,,0.00,VWS V14.01,2013-03-21 03:14:00,
2013-03-20 23:19:00,41.6,15.4,29.71,North,0,0.0,0.0,34,0.00,,,0.00,VWS V14.01,2013-03-21 03:19:00,
2013-03-20 23:24:00,41.5,15.2,29.71,North,0,0.0,0.0,34,0.00,,,0.00,VWS V14.01,2013-03-21 03:24:00,
2013-03-20 23:30:00,41.1,14.9,29.71,South,173,3.1,3.1,34,0.00,,,0.00,VWS V14.01,2013-03-21 03:30:00,
2013-03-20 23:35:00,40.7,14.6,29.71,South,173,0.0,0.0,34,0.00,,,0.00,VWS V14.01,2013-03-21 03:35:00,
2013-03-20 23:40:00,40.6,14.4,29.71,South,173,0.0,0.0,34,0.00,,,0.00,VWS V14.01,2013-03-21 03:40:00,
2013-03-20 23:45:00,40.4,14.2,29.71,South,173,0.0,0.0,34,0.00,,,0.00,VWS V14.01,2013-03-21 03:45:00,
2013-03-20 23:50:00,40.2,14.1,29.71,South,173,0.0,0.0,34,0.00,,,0.00,VWS V14.01,2013-03-21 03:50:00,
2013-03-20 23:55:00,40.0,14.6,29.71,South,173,0.0,0.0,35,0.00,,,0.00,VWS V14.01,2013-03-21 03:55:00,